Aérodrome :
LOGIN :

S'inscrire | Disclaimer

   EN    FR    IT 

 










Légende :    VFR   VFR Marginal   IFR   IFR Intensif   IFR Très Intensif
Visi : 
Plafond : 
>= 8 km
>= 3000ft
5 à 8 km
1000 à 3000 ft
1500m à 5 km
500 à 1000 ft
800 à 1500m
200 à 500 ft
< 800m
< 200 ft
Symboles :   Orages  Brouillard  Fortes neiges  Fortes précipitations  Vent > 20 kt
SIGMETs :   Divers  Orages  Givrage  Turbulence  Onde Orograph.  Cendres Volcan.







- Altitude de l'aérodrome : 82 ft
- Code IATA : QIE
- Voir les cartes d'approche


LFMI - Istres

DERNIER METAR :
  • 130430Z AUTO 09006KT 9999 SCT039 SCT047 OVC056 17/16 Q1025 TEMPO BKN014

METARs EXPIRÉS :
  • 130400Z AUTO 10006KT 9999 BKN039 BKN046 OVC052 17/16 Q1025 TEMPO BKN014
  • 130330Z AUTO 08005KT 9999 BKN040 OVC050 17/16 Q1024 TEMPO BKN014
  • 130300Z AUTO 10007KT 9999 BKN044 OVC052 18/15 Q1024 TEMPO BKN014
  • 130230Z AUTO 09007KT 9999 OVC044 18/16 Q1024 TEMPO BKN014
  • 130200Z AUTO 08006KT 9999 BKN044 OVC050 17/16 Q1024 TEMPO BKN014
  • 130130Z AUTO 07006KT 9999 OVC044 17/16 Q1024 TEMPO BKN014

TAF TAF LFMI
Valide du 13 à 03h jusqu'au 14 à 03h UTC


130200Z 1303/1403 12009KT CAVOK
TEMPO 1303/1306 VRB03KT -RA BKN014
BECMG 1306/1309 VRB03KT
Pas de NOTAMs connus pour ce terrain.



MET'MAP, la Météo Aéronautique d'un coup d'oeil ! - Copyright ORBIFLY Décembre 2007 - Disclaimer

ORBIFLY MET'MAP TEAM :

Programmation & Développement : Alexandra Zaïnal
Conception & Développement : Baudouin d'Aumeries
Co-Programmation & Développement : Marc-Olivier Méhu
Soutien technique & logistique : Manuel Goepfert

Contact : metmap@orbifly.com




SOURCES & CREDITS :

   NOAA